Terminal Aerodrome Forecast
Issued by NWS

Home | Current Version | Previous Version | Text Only | Print | Product List | Glossary On
Versions: 1 2 3 4 5 6 7 8 9 10 11 12 13 14 15 16
000
FTUS46 KPDT 251733
TAFRDM
TAF
KRDM 251733Z 2518/2618 19006KT P6SM SCT050 OVC150
     FM260000 23008KT P6SM -SHRA OVC050
     FM260500 20010KT P6SM BKN050
     FM261200 20012KT 5SM -RA BKN025 OVC040=

USA.gov is the U.S. government's official web portal to all federal, state and local government web resources and services.